Terminal Aerodrome Forecast
Issued by NWS Albany, NY

Home | Current Version | Previous Version | Text Only | Print | Product List | Glossary On
Versions: 1 2 3 4 5 6 7 8 9 10 11 12 13 14 15 16 17 18 19 20
000
FTUS41 KALY 181141
TAFPOU
TAF
KPOU 181141Z 1812/1912 VRB03KT P6SM SCT120 BKN250
     FM181600 18006KT P6SM BKN100
     FM182100 19007KT 6SM -RA SCT025 OVC040
     FM190000 21005KT 4SM -RA BR OVC025
     FM190300 22006KT 3SM -RA BR OVC007
     FM190900 23012G20KT 4SM -RA BR OVC015=

USA.gov is the U.S. government's official web portal to all federal, state and local government web resources and services.